createdAt,value
2022-10-22T00:02:20.653Z,97610.50
2022-10-22T00:04:50.994Z,97633.47
2022-10-22T00:07:18.716Z,97640.44
2022-10-22T00:09:45.821Z,97624.50
2022-10-22T00:12:14.959Z,97627.75
2022-10-22T00:14:42.832Z,97626.13
2022-10-22T00:17:11.474Z,97626.03
2022-10-22T00:19:39.496Z,97631.91
2022-10-22T00:22:07.065Z,97629.16
2022-10-22T00:24:34.811Z,97627.75
2022-10-22T00:27:01.780Z,97621.25
2022-10-22T00:29:28.586Z,97613.66
2022-10-22T00:34:27.319Z,97625.94
2022-10-22T00:36:54.372Z,97608.13
2022-10-22T00:39:23.937Z,97611.69
2022-10-22T00:41:52.359Z,97607.97
2022-10-22T00:44:56.454Z,97612.31
2022-10-22T00:47:25.422Z,97609.63
2022-10-22T00:49:54.118Z,97598.88
2022-10-22T00:52:21.732Z,97603.19
2022-10-22T00:54:48.942Z,97591.84
2022-10-22T00:57:17.068Z,97598.94
2022-10-22T00:59:43.840Z,97603.03
2022-10-22T01:02:10.918Z,97592.50
2022-10-22T01:04:37.619Z,97581.44
2022-10-22T01:07:04.918Z,97607.72
2022-10-22T01:09:47.167Z,97608.38
2022-10-22T01:12:34.728Z,97597.63
2022-10-22T01:15:12.153Z,97604.22
2022-10-22T01:17:58.453Z,97599.41
2022-10-22T01:20:53.608Z,97595.16
2022-10-22T01:23:26.076Z,97593.63
2022-10-22T01:26:06.850Z,97600.13
2022-10-22T01:28:45.679Z,97602.31
2022-10-22T01:31:13.754Z,97592.94
2022-10-22T01:33:41.429Z,97579.81
2022-10-22T01:36:09.471Z,97578.25
2022-10-22T01:38:37.022Z,97584.75
2022-10-22T01:41:03.910Z,97580.75
2022-10-22T01:43:30.594Z,97574.09
2022-10-22T01:46:01.383Z,97568.22
2022-10-22T01:49:14.342Z,97559.06
2022-10-22T01:51:53.835Z,97565.31
2022-10-22T01:54:49.593Z,97565.88
2022-10-22T01:57:51.729Z,97567.50
2022-10-22T02:00:19.681Z,97569.38
2022-10-22T02:03:08.237Z,97557.88
2022-10-22T02:05:58.870Z,97546.88
2022-10-22T02:08:31.308Z,97544.72
2022-10-22T02:10:59.866Z,97546.91
2022-10-22T02:13:41.544Z,97544.53
2022-10-22T02:16:11.424Z,97547.53
2022-10-22T02:18:43.332Z,97545.94
2022-10-22T02:21:10.164Z,97553.53
2022-10-22T02:23:37.169Z,97553.84
2022-10-22T02:26:45.333Z,97553.09
2022-10-22T02:29:15.694Z,97558.22
2022-10-22T02:31:44.551Z,97549.09
2022-10-22T02:34:16.486Z,97556.16
2022-10-22T02:36:48.055Z,97562.66
2022-10-22T02:39:19.420Z,97553.69
2022-10-22T02:41:46.436Z,97544.84
2022-10-22T02:44:13.283Z,97550.31
2022-10-22T02:46:40.952Z,97545.78
2022-10-22T02:49:07.948Z,97541.72
2022-10-22T02:51:34.948Z,97540.38
2022-10-22T02:54:01.932Z,97529.59
2022-10-22T02:56:28.688Z,97526.13
2022-10-22T02:58:55.359Z,97532.38
2022-10-22T03:01:22.216Z,97530.50
2022-10-22T03:03:49.161Z,97520.81
2022-10-22T03:06:16.243Z,97539.41
2022-10-22T03:08:43.715Z,97541.88
2022-10-22T03:11:10.538Z,97539.47
2022-10-22T03:13:37.283Z,97533.53
2022-10-22T03:16:04.197Z,97532.75
2022-10-22T03:18:31.001Z,97521.97
2022-10-22T03:21:13.889Z,97523.34
2022-10-22T03:23:43.593Z,97516.66
2022-10-22T03:26:12.568Z,97506.97
2022-10-22T03:28:41.289Z,97510.19
2022-10-22T03:31:08.151Z,97507.25
2022-10-22T03:33:34.754Z,97501.09
2022-10-22T03:36:02.093Z,97505.16
2022-10-22T03:38:29.687Z,97492.75
2022-10-22T03:40:56.441Z,97498.19
2022-10-22T03:43:23.164Z,97506.56
2022-10-22T03:45:49.812Z,97506.28
2022-10-22T03:48:16.393Z,97510.06
2022-10-22T03:50:43.104Z,97510.06
2022-10-22T03:53:10.678Z,97508.41
2022-10-22T03:55:38.378Z,97499.28
2022-10-22T03:58:05.911Z,97492.53
2022-10-22T04:00:34.157Z,97489.03
2022-10-22T04:03:00.753Z,97484.75
2022-10-22T04:05:27.535Z,97478.78
2022-10-22T04:07:54.289Z,97489.31
2022-10-22T04:10:21.117Z,97491.00
2022-10-22T04:12:48.550Z,97496.91
2022-10-22T04:15:15.511Z,97490.72
2022-10-22T04:17:42.405Z,97492.38
2022-10-22T04:20:10.443Z,97486.44
2022-10-22T04:22:37.473Z,97484.31
2022-10-22T04:25:05.217Z,97477.31
2022-10-22T04:27:33.327Z,97476.53
2022-10-22T04:30:00.016Z,97470.88
2022-10-22T04:32:28.012Z,97476.31
2022-10-22T04:34:54.937Z,97478.22
2022-10-22T04:37:21.678Z,97483.63
2022-10-22T04:39:48.339Z,97480.16
2022-10-22T04:42:15.208Z,97483.69
2022-10-22T04:44:41.825Z,97487.19
2022-10-22T04:47:08.474Z,97474.00
2022-10-22T04:49:35.100Z,97472.66
2022-10-22T04:52:01.760Z,97468.34
2022-10-22T04:54:32.138Z,97482.72
2022-10-22T04:57:00.350Z,97490.53
2022-10-22T04:59:27.150Z,97501.03
2022-10-22T05:01:53.709Z,97492.16
2022-10-22T05:04:20.323Z,97492.72
2022-10-22T05:06:47.394Z,97497.03
2022-10-22T05:09:19.909Z,97499.22
2022-10-22T05:11:49.220Z,97495.97
2022-10-22T05:14:19.894Z,97487.66
2022-10-22T05:16:48.606Z,97494.94
2022-10-22T05:19:34.187Z,97498.72
2022-10-22T05:22:02.531Z,97494.44
2022-10-22T05:24:32.588Z,97478.22
2022-10-22T05:27:00.201Z,97491.72
2022-10-22T05:29:27.436Z,97493.38
2022-10-22T05:31:54.052Z,97496.06
2022-10-22T05:34:20.797Z,97506.34
2022-10-22T05:36:47.630Z,97509.84
2022-10-22T05:39:14.206Z,97498.25
2022-10-22T05:41:41.937Z,97498.78
2022-10-22T05:44:12.621Z,97506.63
2022-10-22T05:46:39.662Z,97514.44
2022-10-22T05:49:07.348Z,97506.09
2022-10-22T05:51:36.496Z,97512.81
2022-10-22T05:54:06.269Z,97496.63
2022-10-22T05:56:34.077Z,97513.94
2022-10-22T05:59:00.977Z,97496.38
2022-10-22T06:01:32.667Z,97503.44
2022-10-22T06:04:03.236Z,97499.91
2022-10-22T06:06:38.737Z,97504.50
2022-10-22T06:09:14.559Z,97508.53
2022-10-22T06:11:41.334Z,97498.84
2022-10-22T06:14:07.930Z,97511.25
2022-10-22T06:16:34.574Z,97514.22
2022-10-22T06:19:02.295Z,97523.16
2022-10-22T06:21:31.025Z,97520.75
2022-10-22T06:23:59.942Z,97517.22
2022-10-22T06:26:26.669Z,97521.56
2022-10-22T06:28:53.485Z,97528.28
2022-10-22T06:31:20.214Z,97517.53
2022-10-22T06:33:46.901Z,97528.59
2022-10-22T06:36:16.795Z,97522.09
2022-10-22T06:38:44.135Z,97537.50
2022-10-22T06:41:15.771Z,97530.78
2022-10-22T06:43:47.092Z,97526.97
2022-10-22T06:46:19.097Z,97524.81
2022-10-22T06:48:56.900Z,97524.53
2022-10-22T06:51:23.784Z,97511.88
2022-10-22T06:53:50.409Z,97522.66
2022-10-22T06:56:20.455Z,97522.13
2022-10-22T06:58:51.634Z,97517.25
2022-10-22T07:01:21.198Z,97519.69
2022-10-22T07:03:51.439Z,97516.72
2022-10-22T07:06:19.666Z,97523.72
2022-10-22T07:08:46.963Z,97512.38
2022-10-22T07:11:16.390Z,97526.41
2022-10-22T07:13:43.308Z,97519.38
2022-10-22T07:16:10.442Z,97517.47
2022-10-22T07:18:38.950Z,97523.13
2022-10-22T07:21:07.231Z,97507.19
2022-10-22T07:23:34.238Z,97516.88
2022-10-22T07:26:02.886Z,97507.38
2022-10-22T07:28:30.700Z,97517.06
2022-10-22T07:30:57.320Z,97505.97
2022-10-22T07:33:23.962Z,97498.91
2022-10-22T07:35:50.589Z,97504.78
2022-10-22T07:38:17.521Z,97505.78
2022-10-22T07:40:44.196Z,97504.94
2022-10-22T07:43:10.802Z,97514.56
2022-10-22T07:45:37.587Z,97509.31
2022-10-22T07:48:04.801Z,97522.72
2022-10-22T07:50:31.404Z,97509.31
2022-10-22T07:52:58.447Z,97517.34
2022-10-22T07:55:25.722Z,97519.63
2022-10-22T07:57:52.457Z,97510.53
2022-10-22T08:00:21.739Z,97515.22
2022-10-22T08:02:51.325Z,97508.00
2022-10-22T08:05:18.116Z,97506.13
2022-10-22T08:07:44.834Z,97506.72
2022-10-22T08:10:12.780Z,97506.97
2022-10-22T08:12:40.822Z,97504.31
2022-10-22T08:15:08.425Z,97512.72
2022-10-22T08:17:35.224Z,97508.94
2022-10-22T08:20:01.832Z,97514.97
2022-10-22T08:22:28.511Z,97520.94
2022-10-22T08:24:55.342Z,97522.00
2022-10-22T08:27:22.028Z,97517.88
2022-10-22T08:29:48.710Z,97505.63
2022-10-22T08:32:15.490Z,97509.34
2022-10-22T08:34:42.154Z,97495.44
2022-10-22T08:37:10.611Z,97499.75
2022-10-22T08:39:37.325Z,97506.59
2022-10-22T08:42:27.064Z,97514.91
2022-10-22T08:45:12.990Z,97505.09
2022-10-22T08:47:59.678Z,97516.97
2022-10-22T08:50:41.112Z,97507.13
2022-10-22T08:53:15.564Z,97517.00
2022-10-22T08:55:43.533Z,97523.31
2022-10-22T08:58:47.268Z,97517.13
2022-10-22T09:01:34.978Z,97519.09
2022-10-22T09:04:25.632Z,97523.47
2022-10-22T09:06:58.726Z,97526.63
2022-10-22T09:09:36.313Z,97518.63
2022-10-22T09:12:07.226Z,97526.41
2022-10-22T09:14:33.893Z,97537.44
2022-10-22T09:17:14.019Z,97534.78
2022-10-22T09:19:56.012Z,97520.66
2022-10-22T09:22:53.746Z,97518.59
2022-10-22T09:25:27.965Z,97511.81
2022-10-22T09:27:58.464Z,97520.69
2022-10-22T09:30:35.521Z,97508.94
2022-10-22T09:33:07.250Z,97512.16
2022-10-22T09:35:47.424Z,97515.09
2022-10-22T09:38:16.949Z,97508.47
2022-10-22T09:40:47.633Z,97504.91
2022-10-22T09:43:14.992Z,97505.38
2022-10-22T09:45:43.180Z,97499.91
2022-10-22T09:48:18.906Z,97507.13
2022-10-22T09:50:55.173Z,97502.09
2022-10-22T09:53:31.397Z,97506.25
2022-10-22T09:56:01.570Z,97511.03
2022-10-22T09:58:28.676Z,97513.41
2022-10-22T10:00:58.501Z,97512.59
2022-10-22T10:03:28.608Z,97509.50
2022-10-22T10:06:01.620Z,97504.47
2022-10-22T10:08:32.469Z,97509.63
2022-10-22T10:11:12.963Z,97507.22
2022-10-22T10:13:44.030Z,97496.44
2022-10-22T10:16:25.642Z,97501.78
2022-10-22T10:19:19.647Z,97498.88
2022-10-22T10:22:02.475Z,97492.28
2022-10-22T10:24:37.973Z,97488.56
2022-10-22T10:27:29.328Z,97498.19
2022-10-22T10:30:13.465Z,97496.72
2022-10-22T10:32:55.448Z,97496.72
2022-10-22T10:35:35.271Z,97492.84
2022-10-22T10:38:09.475Z,97497.22
2022-10-22T10:40:52.912Z,97494.47
2022-10-22T10:43:23.261Z,97486.03
2022-10-22T10:45:55.737Z,97484.03
2022-10-22T10:48:33.382Z,97477.72
2022-10-22T10:51:24.077Z,97483.94
2022-10-22T10:53:59.909Z,97477.13
2022-10-22T10:56:49.612Z,97468.09
2022-10-22T10:59:16.152Z,97471.38
2022-10-22T11:02:11.465Z,97466.81
2022-10-22T11:04:57.054Z,97470.94
2022-10-22T11:07:45.847Z,97467.00
2022-10-22T11:10:29.538Z,97465.94
2022-10-22T11:13:06.713Z,97451.50
2022-10-22T11:15:37.654Z,97455.00
2022-10-22T11:18:18.100Z,97449.75
2022-10-22T11:21:03.829Z,97455.38
2022-10-22T11:23:45.209Z,97459.16
2022-10-22T11:26:23.164Z,97452.06
2022-10-22T11:28:53.887Z,97457.56
2022-10-22T11:31:25.873Z,97451.84
2022-10-22T11:34:28.341Z,97447.41
2022-10-22T11:36:53.791Z,97431.38
2022-10-22T11:39:47.986Z,97431.16
2022-10-22T11:42:23.771Z,97424.75
2022-10-22T11:45:00.728Z,97425.66
2022-10-22T11:48:09.279Z,97426.00
2022-10-22T11:50:44.741Z,97425.34
2022-10-22T11:53:14.161Z,97424.66
2022-10-22T11:55:48.064Z,97427.41
2022-10-22T11:58:31.557Z,97414.34
2022-10-22T12:01:18.312Z,97412.50
2022-10-22T12:03:49.182Z,97416.16
2022-10-22T12:06:16.013Z,97416.53
2022-10-22T12:08:50.654Z,97417.66
2022-10-22T12:11:24.599Z,97404.59
2022-10-22T12:14:04.158Z,97395.91
2022-10-22T12:16:54.705Z,97400.59
2022-10-22T12:19:23.402Z,97406.53
2022-10-22T12:21:55.999Z,97397.06
2022-10-22T12:24:26.126Z,97390.97
2022-10-22T12:26:53.009Z,97396.47
2022-10-22T12:29:26.812Z,97387.19
2022-10-22T12:31:54.696Z,97384.22
2022-10-22T12:34:25.563Z,97396.03
2022-10-22T12:36:55.416Z,97389.06
2022-10-22T12:39:26.658Z,97389.59
2022-10-22T12:41:55.752Z,97386.53
2022-10-22T12:44:22.507Z,97389.16
2022-10-22T12:46:53.048Z,97393.75
2022-10-22T12:49:29.058Z,97389.75
2022-10-22T12:52:00.513Z,97385.25
2022-10-22T12:54:33.096Z,97398.19
2022-10-22T12:57:00.570Z,97391.91
2022-10-22T12:59:32.995Z,97391.91
2022-10-22T13:01:59.856Z,97395.34
2022-10-22T13:04:26.830Z,97399.69
2022-10-22T13:07:15.945Z,97390.84
2022-10-22T13:09:48.236Z,97390.16
2022-10-22T13:12:16.929Z,97393.25
2022-10-22T13:14:45.657Z,97388.09
2022-10-22T13:17:12.334Z,97382.53
2022-10-22T13:19:53.031Z,97380.44
2022-10-22T13:22:29.577Z,97383.88
2022-10-22T13:24:59.725Z,97376.19
2022-10-22T13:27:28.455Z,97386.63
2022-10-22T13:29:57.224Z,97386.16
2022-10-22T13:32:34.248Z,97380.91
2022-10-22T13:35:02.816Z,97396.00
2022-10-22T13:37:32.782Z,97370.31
2022-10-22T13:39:59.583Z,97387.63
2022-10-22T13:42:26.187Z,97384.16
2022-10-22T13:44:52.760Z,97371.09
2022-10-22T13:47:28.992Z,97374.41
2022-10-22T13:49:58.700Z,97377.03
2022-10-22T13:52:30.738Z,97377.38
2022-10-22T13:54:57.368Z,97380.13
2022-10-22T13:57:24.047Z,97376.22
2022-10-22T13:59:50.868Z,97381.91
2022-10-22T14:02:17.965Z,97373.91
2022-10-22T14:04:45.304Z,97360.91
2022-10-22T14:07:16.995Z,97376.72
2022-10-22T14:09:44.184Z,97378.41
2022-10-22T14:12:16.767Z,97384.22
2022-10-22T14:14:43.523Z,97371.84
2022-10-22T14:17:17.803Z,97380.88
2022-10-22T14:19:47.057Z,97374.47
2022-10-22T14:22:16.398Z,97365.06
2022-10-22T14:24:43.206Z,97378.97
2022-10-22T14:27:12.815Z,97352.28
2022-10-22T14:29:40.085Z,97357.97
2022-10-22T14:32:13.738Z,97360.78
2022-10-22T14:34:40.791Z,97369.19
2022-10-22T14:37:19.581Z,97365.06
2022-10-22T14:39:52.009Z,97367.50
2022-10-22T14:42:19.917Z,97366.09
2022-10-22T14:44:46.732Z,97364.66
2022-10-22T14:47:13.377Z,97365.34
2022-10-22T14:49:40.053Z,97354.91
2022-10-22T14:52:09.498Z,97360.91
2022-10-22T14:54:38.451Z,97362.22
2022-10-22T14:57:06.887Z,97361.94
2022-10-22T14:59:33.561Z,97349.09
2022-10-22T15:02:00.230Z,97359.59
2022-10-22T15:04:28.245Z,97360.41
2022-10-22T15:06:57.213Z,97352.38
2022-10-22T15:09:24.146Z,97358.84
2022-10-22T15:11:51.606Z,97361.16
2022-10-22T15:14:18.634Z,97348.44
2022-10-22T15:16:45.269Z,97344.94
2022-10-22T15:19:12.043Z,97347.84
2022-10-22T15:21:39.253Z,97348.03
2022-10-22T15:24:08.260Z,97345.31
2022-10-22T15:26:34.873Z,97341.16
2022-10-22T15:29:04.173Z,97356.59
2022-10-22T15:31:46.845Z,97339.56
2022-10-22T15:34:17.848Z,97350.84
2022-10-22T15:36:44.426Z,97344.06
2022-10-22T15:39:11.137Z,97352.28
2022-10-22T15:41:38.049Z,97337.00
2022-10-22T15:44:06.334Z,97341.84
2022-10-22T15:46:35.337Z,97349.03
2022-10-22T15:49:02.451Z,97354.97
2022-10-22T15:51:29.192Z,97358.63
2022-10-22T15:53:58.112Z,97354.47
2022-10-22T15:56:27.040Z,97349.16
2022-10-22T15:58:56.346Z,97349.31
2022-10-22T16:01:23.641Z,97346.75
2022-10-22T16:04:00.377Z,97348.34
2022-10-22T16:06:36.953Z,97346.88
2022-10-22T16:09:08.169Z,97340.44
2022-10-22T16:11:35.499Z,97346.53
2022-10-22T16:14:03.127Z,97335.09
2022-10-22T16:16:31.969Z,97333.47
2022-10-22T16:18:59.745Z,97339.56
2022-10-22T16:21:27.186Z,97338.59
2022-10-22T16:23:53.880Z,97340.81
2022-10-22T16:26:21.232Z,97326.53
2022-10-22T16:28:48.823Z,97334.53
2022-10-22T16:31:18.174Z,97335.03
2022-10-22T16:33:49.244Z,97345.13
2022-10-22T16:36:19.305Z,97341.09
2022-10-22T16:38:47.030Z,97341.56
2022-10-22T16:41:19.054Z,97334.50
2022-10-22T16:43:48.526Z,97340.91
2022-10-22T16:46:17.707Z,97336.56
2022-10-22T16:48:48.841Z,97338.31
2022-10-22T16:51:17.464Z,97348.09
2022-10-22T16:53:44.592Z,97337.81
2022-10-22T16:56:16.371Z,97341.13
2022-10-22T16:58:48.891Z,97341.47
2022-10-22T17:01:17.938Z,97344.81
2022-10-22T17:03:44.985Z,97334.66
2022-10-22T17:06:12.354Z,97334.66
2022-10-22T17:08:41.202Z,97339.94
2022-10-22T17:11:14.263Z,97328.22
2022-10-22T17:13:41.946Z,97332.69
2022-10-22T17:16:11.474Z,97335.91
2022-10-22T17:18:40.154Z,97328.06
2022-10-22T17:21:08.753Z,97320.66
2022-10-22T17:23:35.605Z,97306.53
2022-10-22T17:26:06.603Z,97308.78
2022-10-22T17:28:35.931Z,97313.91
2022-10-22T17:31:27.475Z,97307.66
2022-10-22T17:33:56.669Z,97305.25
2022-10-22T17:36:24.741Z,97292.25
2022-10-22T17:38:54.063Z,97287.56
2022-10-22T17:41:27.094Z,97301.19
2022-10-22T17:43:54.541Z,97295.84
2022-10-22T17:46:24.066Z,97298.56
2022-10-22T17:48:52.682Z,97300.81
2022-10-22T17:51:20.080Z,97298.22
2022-10-22T17:53:47.007Z,97296.00
2022-10-22T17:56:16.369Z,97301.13
2022-10-22T17:58:43.452Z,97294.06
2022-10-22T18:01:22.422Z,97299.84
2022-10-22T18:03:49.649Z,97289.66
2022-10-22T18:06:16.705Z,97302.38
2022-10-22T18:08:43.636Z,97295.94
2022-10-22T18:11:13.047Z,97299.94
2022-10-22T18:13:39.760Z,97289.00
2022-10-22T18:16:06.635Z,97289.00
2022-10-22T18:18:34.665Z,97270.19
2022-10-22T18:21:01.827Z,97270.38
2022-10-22T18:23:29.446Z,97272.28
2022-10-22T18:25:56.125Z,97292.16
2022-10-22T18:28:22.830Z,97288.03
2022-10-22T18:30:49.640Z,97290.44
2022-10-22T18:33:19.461Z,97294.28
2022-10-22T18:35:46.613Z,97289.44
2022-10-22T18:38:13.690Z,97279.94
2022-10-22T18:40:46.830Z,97280.47
2022-10-22T18:43:13.926Z,97273.69
2022-10-22T18:45:45.063Z,97280.78
2022-10-22T18:48:14.885Z,97281.88
2022-10-22T18:50:41.714Z,97277.03
2022-10-22T18:53:11.250Z,97277.03
2022-10-22T18:55:41.713Z,97284.75
2022-10-22T18:58:08.398Z,97280.91
2022-10-22T19:00:35.436Z,97281.50
2022-10-22T19:03:03.388Z,97283.75
2022-10-22T19:05:30.107Z,97278.72
2022-10-22T19:07:56.758Z,97272.66
2022-10-22T19:10:23.463Z,97280.34
2022-10-22T19:12:50.077Z,97271.97
2022-10-22T19:15:16.720Z,97258.88
2022-10-22T19:17:43.731Z,97264.41
2022-10-22T19:20:10.726Z,97252.91
2022-10-22T19:22:37.326Z,97243.56
2022-10-22T19:25:06.036Z,97253.22
2022-10-22T19:27:36.469Z,97243.94
2022-10-22T19:30:06.489Z,97233.97
2022-10-22T19:32:33.094Z,97231.56
2022-10-22T19:34:59.771Z,97229.47
2022-10-22T19:37:26.732Z,97244.38
2022-10-22T19:39:53.329Z,97248.72
2022-10-22T19:42:20.872Z,97254.47
2022-10-22T19:44:47.773Z,97261.22
2022-10-22T19:47:16.058Z,97256.56
2022-10-22T19:49:42.974Z,97255.59
2022-10-22T19:52:09.724Z,97261.22
2022-10-22T19:54:40.771Z,97254.66
2022-10-22T19:57:08.128Z,97250.31
2022-10-22T19:59:35.315Z,97244.69
2022-10-22T20:02:02.140Z,97246.09
2022-10-22T20:04:29.328Z,97256.69
2022-10-22T20:06:55.940Z,97253.78
2022-10-22T20:09:22.999Z,97247.34
2022-10-22T20:11:49.831Z,97242.53
2022-10-22T20:14:16.453Z,97242.81
2022-10-22T20:16:43.385Z,97251.31
2022-10-22T20:19:10.973Z,97237.69
2022-10-22T20:21:38.009Z,97230.09
2022-10-22T20:24:04.824Z,97229.59
2022-10-22T20:26:31.801Z,97216.50
2022-10-22T20:28:59.096Z,97217.31
2022-10-22T20:31:28.579Z,97216.50
2022-10-22T20:34:01.248Z,97223.94
2022-10-22T20:36:29.081Z,97239.66
2022-10-22T20:39:06.011Z,97224.75
2022-10-22T20:41:34.114Z,97223.34
2022-10-22T20:44:01.293Z,97201.34
2022-10-22T20:46:31.873Z,97206.34
2022-10-22T20:49:08.976Z,97208.66
2022-10-22T20:51:37.065Z,97228.41
2022-10-22T20:54:04.932Z,97233.16
2022-10-22T20:56:32.325Z,97230.44
2022-10-22T20:59:05.945Z,97213.91
2022-10-22T21:01:40.167Z,97218.66
2022-10-22T21:04:07.545Z,97210.28
2022-10-22T21:06:37.992Z,97221.31
2022-10-22T21:09:10.739Z,97226.25
2022-10-22T21:11:38.837Z,97218.50
2022-10-22T21:14:06.884Z,97223.13
2022-10-22T21:16:34.051Z,97226.38
2022-10-22T21:19:01.125Z,97241.38
2022-10-22T21:21:28.219Z,97233.03
2022-10-22T21:23:55.034Z,97232.03
2022-10-22T21:26:21.783Z,97223.41
2022-10-22T21:28:48.657Z,97222.75
2022-10-22T21:31:22.190Z,97215.53
2022-10-22T21:33:50.046Z,97224.00
2022-10-22T21:36:21.685Z,97218.47
2022-10-22T21:38:50.907Z,97230.34
2022-10-22T21:41:19.014Z,97247.50
2022-10-22T21:43:45.937Z,97255.13
2022-10-22T21:46:38.967Z,97257.34
2022-10-22T21:49:05.593Z,97263.91
2022-10-22T21:51:35.250Z,97254.75
2022-10-22T21:54:02.110Z,97248.69
2022-10-22T21:56:32.753Z,97241.03
2022-10-22T21:58:59.954Z,97233.97
2022-10-22T22:01:26.829Z,97237.63
2022-10-22T22:03:53.801Z,97244.66
2022-10-22T22:06:23.477Z,97247.38
2022-10-22T22:08:52.065Z,97249.31
2022-10-22T22:11:22.402Z,97259.25
2022-10-22T22:13:49.720Z,97242.25
2022-10-22T22:16:21.266Z,97250.91
2022-10-22T22:18:50.590Z,97246.28
2022-10-22T22:21:19.633Z,97245.28
2022-10-22T22:23:48.651Z,97236.22
2022-10-22T22:26:19.295Z,97231.19
2022-10-22T22:28:46.144Z,97226.97
2022-10-22T22:31:25.140Z,97224.44
2022-10-22T22:33:57.531Z,97223.34
2022-10-22T22:36:24.131Z,97220.72
2022-10-22T22:38:55.683Z,97231.31
2022-10-22T22:41:22.923Z,97242.06
2022-10-22T22:43:49.728Z,97245.91
2022-10-22T22:46:16.635Z,97260.09
2022-10-22T22:48:43.333Z,97257.19
2022-10-22T22:51:10.887Z,97264.53
2022-10-22T22:53:37.598Z,97268.88
2022-10-22T22:56:12.973Z,97266.16
2022-10-22T22:58:40.676Z,97264.53
2022-10-22T23:01:16.481Z,97259.38
2022-10-22T23:03:45.175Z,97266.53
2022-10-22T23:06:12.709Z,97257.19
2022-10-22T23:08:40.015Z,97262.34
2022-10-22T23:11:10.858Z,97251.75
2022-10-22T23:13:38.776Z,97254.66
2022-10-22T23:16:12.424Z,97261.00
2022-10-22T23:18:39.212Z,97268.56
2022-10-22T23:21:07.811Z,97269.69
2022-10-22T23:23:34.814Z,97269.47
2022-10-22T23:26:01.994Z,97267.25
2022-10-22T23:28:28.895Z,97274.00
2022-10-22T23:30:56.430Z,97269.97
2022-10-22T23:33:23.027Z,97265.44
2022-10-22T23:35:49.695Z,97272.50
2022-10-22T23:38:16.520Z,97270.88
2022-10-22T23:40:43.493Z,97277.22
2022-10-22T23:43:10.056Z,97284.06
2022-10-22T23:45:36.813Z,97281.66
2022-10-22T23:48:03.693Z,97287.91
2022-10-22T23:50:30.365Z,97270.16
2022-10-22T23:52:57.053Z,97297.63
2022-10-22T23:55:23.692Z,97309.28
2022-10-22T23:57:50.296Z,97315.84
